createdAt,value
2018-03-03T00:00:08.510Z,27.1
2018-03-03T00:01:08.416Z,26.8
2018-03-03T00:02:08.002Z,27.1
2018-03-03T00:03:08.240Z,26.5
2018-03-03T00:04:08.194Z,27.1
2018-03-03T00:05:07.979Z,27.0
2018-03-03T00:06:08.233Z,26.8
2018-03-03T00:07:08.456Z,27.7
2018-03-03T00:08:08.264Z,26.8
2018-03-03T00:09:08.281Z,27.0
2018-03-03T00:10:08.011Z,26.3
2018-03-03T00:11:08.496Z,27.0
2018-03-03T00:12:08.207Z,27.1
2018-03-03T00:13:08.424Z,27.6
2018-03-03T00:14:08.217Z,26.8
2018-03-03T00:17:08.524Z,27.9
2018-03-03T00:18:08.019Z,28.1
2018-03-03T00:19:08.059Z,26.5
2018-03-03T00:22:08.058Z,27.1
2018-03-03T00:23:08.523Z,27.0
2018-03-03T00:24:08.092Z,27.3
2018-03-03T00:25:08.517Z,27.8
2018-03-03T00:26:08.464Z,27.6
2018-03-03T00:27:08.489Z,27.4
2018-03-03T00:28:08.121Z,27.8
2018-03-03T00:29:08.068Z,27.7
2018-03-03T00:30:08.454Z,27.3
2018-03-03T00:31:08.147Z,28.0
2018-03-03T00:32:08.548Z,27.3
2018-03-03T00:33:08.599Z,26.8
2018-03-03T00:34:08.120Z,27.8
2018-03-03T00:35:08.151Z,27.2
2018-03-03T00:36:08.067Z,27.8
2018-03-03T00:37:08.548Z,27.5
2018-03-03T00:38:08.092Z,28.7
2018-03-03T00:39:08.521Z,27.4
2018-03-03T00:40:08.543Z,28.4
2018-03-03T00:41:08.281Z,28.5
2018-03-03T00:42:08.099Z,26.9
2018-03-03T00:44:08.515Z,28.4
2018-03-03T00:45:08.275Z,28.8
2018-03-03T00:46:08.537Z,28.7
2018-03-03T00:47:08.090Z,28.7
2018-03-03T00:48:08.507Z,29.0
2018-03-03T00:49:08.538Z,28.4
2018-03-03T00:51:08.535Z,27.1
2018-03-03T00:52:08.532Z,27.9
2018-03-03T00:53:08.084Z,27.8
2018-03-03T00:54:08.062Z,29.1
2018-03-03T00:55:08.321Z,28.8
2018-03-03T00:56:08.116Z,28.4
2018-03-03T00:57:08.304Z,28.8
2018-03-03T00:58:08.270Z,28.1
2018-03-03T00:59:08.246Z,28.5
2018-03-03T01:00:08.638Z,29.1
2018-03-03T01:01:08.482Z,28.7
2018-03-03T01:02:08.515Z,28.5
2018-03-03T01:03:08.291Z,28.4
2018-03-03T01:04:08.187Z,28.6
2018-03-03T01:05:08.521Z,28.5
2018-03-03T01:06:08.610Z,28.2
2018-03-03T01:07:08.336Z,27.9
2018-03-03T01:08:08.666Z,28.1
2018-03-03T01:09:08.556Z,27.6
2018-03-03T01:11:08.593Z,30.2
2018-03-03T01:12:08.629Z,28.4
2018-03-03T01:13:08.564Z,29.2
2018-03-03T01:14:08.501Z,28.6
2018-03-03T01:15:08.136Z,28.8
2018-03-03T01:17:08.129Z,30.0
2018-03-03T01:18:08.170Z,28.6
2018-03-03T01:19:08.588Z,30.0
2018-03-03T01:21:08.325Z,29.8
2018-03-03T01:22:08.584Z,29.5
2018-03-03T01:23:08.501Z,29.9
2018-03-03T01:24:08.517Z,29.2
2018-03-03T01:25:08.543Z,29.6
2018-03-03T01:26:08.357Z,29.2
2018-03-03T01:27:08.401Z,29.1
2018-03-03T01:28:08.335Z,29.9
2018-03-03T01:29:08.590Z,30.1
2018-03-03T01:30:08.613Z,29.4
2018-03-03T01:31:08.331Z,29.7
2018-03-03T01:32:08.351Z,29.5
2018-03-03T01:33:08.400Z,30.6
2018-03-03T01:34:08.230Z,29.3
2018-03-03T01:35:08.338Z,30.7
2018-03-03T01:36:08.704Z,30.7
2018-03-03T01:38:08.592Z,30.0
2018-03-03T01:39:08.205Z,31.1
2018-03-03T01:40:08.585Z,30.1
2018-03-03T01:41:08.602Z,31.8
2018-03-03T01:42:08.219Z,30.9
2018-03-03T01:43:08.360Z,30.3
2018-03-03T01:44:08.407Z,30.3
2018-03-03T01:46:08.633Z,30.1
2018-03-03T01:47:08.594Z,30.2
2018-03-03T01:48:08.441Z,29.5
2018-03-03T01:49:08.398Z,30.5
2018-03-03T01:50:08.217Z,29.5
2018-03-03T01:51:08.189Z,30.1
2018-03-03T01:52:08.657Z,30.1
2018-03-03T01:53:08.392Z,30.7
2018-03-03T01:54:08.238Z,30.2
2018-03-03T01:56:08.649Z,31.7
2018-03-03T01:57:08.634Z,30.6
2018-03-03T01:58:08.181Z,30.3
2018-03-03T01:59:08.622Z,29.7
2018-03-03T02:00:08.235Z,31.0
2018-03-03T02:01:08.224Z,30.5
2018-03-03T02:02:08.633Z,30.8
2018-03-03T02:03:08.689Z,29.1
2018-03-03T02:04:08.627Z,31.3
2018-03-03T02:06:08.638Z,30.6
2018-03-03T02:07:08.460Z,30.6
2018-03-03T02:08:08.396Z,30.6
2018-03-03T02:09:08.663Z,30.1
2018-03-03T02:10:08.700Z,30.5
2018-03-03T02:11:08.664Z,31.0
2018-03-03T02:12:08.441Z,30.2
2018-03-03T02:14:08.445Z,30.9
2018-03-03T02:15:25.938Z,30.5
2018-03-03T02:16:24.038Z,29.8
2018-03-03T02:17:24.483Z,30.1
2018-03-03T02:18:30.200Z,31.5
2018-03-03T02:21:08.306Z,31.3
2018-03-03T02:22:08.540Z,30.9
2018-03-03T02:23:08.428Z,29.9
2018-03-03T02:24:08.690Z,30.5
2018-03-03T02:27:08.489Z,30.8
2018-03-03T02:32:31.085Z,30.4
2018-03-03T02:32:41.105Z,29.6
2018-03-03T02:33:41.371Z,31.2
2018-03-03T02:35:40.934Z,31.2
2018-03-03T02:36:40.878Z,30.7
2018-03-03T02:37:40.923Z,31.0
2018-03-03T02:38:41.392Z,31.4
2018-03-03T02:39:41.108Z,31.2
2018-03-03T02:40:41.085Z,31.7
2018-03-03T02:41:41.317Z,31.9
2018-03-03T02:42:40.969Z,30.8
2018-03-03T02:43:40.900Z,31.2
2018-03-03T02:45:41.267Z,30.8
2018-03-03T02:46:41.080Z,31.4
2018-03-03T02:47:41.420Z,31.1
2018-03-03T02:48:41.328Z,31.7
2018-03-03T02:49:41.444Z,31.3
2018-03-03T02:50:41.291Z,30.9
2018-03-03T02:52:40.926Z,31.1
2018-03-03T02:53:40.970Z,31.0
2018-03-03T02:54:40.919Z,30.8
2018-03-03T02:55:41.364Z,30.7
2018-03-03T02:56:41.415Z,31.6
2018-03-03T02:57:41.318Z,31.3
2018-03-03T02:58:41.141Z,30.9
2018-03-03T02:59:41.390Z,31.5
2018-03-03T03:00:41.371Z,31.3
2018-03-03T03:01:40.918Z,30.9
2018-03-03T03:02:41.359Z,30.5
2018-03-03T03:03:41.328Z,31.0
2018-03-03T03:04:41.374Z,31.4
2018-03-03T03:05:41.126Z,31.3
2018-03-03T03:06:41.444Z,30.8
2018-03-03T03:07:41.020Z,31.0
2018-03-03T03:08:41.150Z,31.6
2018-03-03T03:09:41.434Z,32.2
2018-03-03T03:10:40.991Z,30.6
2018-03-03T03:11:41.370Z,31.2
2018-03-03T03:12:40.950Z,31.7
2018-03-03T03:13:40.990Z,31.7
2018-03-03T03:14:41.173Z,31.4
2018-03-03T03:15:41.414Z,32.0
2018-03-03T03:16:40.943Z,30.7
2018-03-03T03:17:40.949Z,31.8
2018-03-03T03:18:40.952Z,31.7
2018-03-03T03:19:41.716Z,31.6
2018-03-03T03:20:41.483Z,30.7
2018-03-03T03:21:40.970Z,30.2
2018-03-03T03:22:41.020Z,30.9
2018-03-03T03:23:41.480Z,31.3
2018-03-03T03:24:41.457Z,31.1
2018-03-03T03:25:41.483Z,32.4
2018-03-03T03:26:41.608Z,32.0
2018-03-03T03:27:40.970Z,32.1
2018-03-03T03:28:41.484Z,31.4
2018-03-03T03:29:41.420Z,31.0
2018-03-03T03:30:40.996Z,32.0
2018-03-03T03:31:41.232Z,31.6
2018-03-03T03:32:40.967Z,31.5
2018-03-03T03:33:41.178Z,30.4
2018-03-03T03:34:41.444Z,31.4
2018-03-03T03:35:40.987Z,31.5
2018-03-03T03:36:41.203Z,31.4
2018-03-03T03:37:41.208Z,31.0
2018-03-03T03:38:41.010Z,31.6
2018-03-03T03:39:41.433Z,30.9
2018-03-03T03:40:41.479Z,31.4
2018-03-03T03:41:41.486Z,31.4
2018-03-03T03:42:41.468Z,31.4
2018-03-03T03:43:41.527Z,31.9
2018-03-03T03:44:41.204Z,30.9
2018-03-03T03:45:41.246Z,31.6
2018-03-03T03:46:41.239Z,32.1
2018-03-03T03:47:41.290Z,31.4
2018-03-03T03:48:41.035Z,30.8
2018-03-03T03:49:41.264Z,31.0
2018-03-03T03:50:41.199Z,30.7
2018-03-03T03:51:41.043Z,30.1
2018-03-03T03:52:41.059Z,30.1
2018-03-03T03:53:41.256Z,31.9
2018-03-03T03:55:41.527Z,31.1
2018-03-03T03:56:41.452Z,31.4
2018-03-03T03:57:41.454Z,31.7
2018-03-03T03:58:41.105Z,30.8
2018-03-03T03:59:41.413Z,31.3
2018-03-03T04:01:51.458Z,31.9
2018-03-03T04:02:41.466Z,30.9
2018-03-03T04:03:41.530Z,31.4
2018-03-03T04:05:41.173Z,31.7
2018-03-03T04:06:41.034Z,32.2
2018-03-03T04:07:41.501Z,33.2
2018-03-03T04:08:41.280Z,31.2
2018-03-03T04:09:41.080Z,30.6
2018-03-03T04:11:41.261Z,30.8
2018-03-03T04:12:41.094Z,31.9
2018-03-03T04:13:41.066Z,31.7
2018-03-03T04:14:41.554Z,31.5
2018-03-03T04:15:41.464Z,31.7
2018-03-03T04:16:41.514Z,30.1
2018-03-03T04:17:41.556Z,30.8
2018-03-03T04:18:41.080Z,31.5
2018-03-03T04:19:41.474Z,32.1
2018-03-03T04:20:41.160Z,31.9
2018-03-03T04:21:41.299Z,31.4
2018-03-03T04:22:41.533Z,31.3
2018-03-03T04:23:41.093Z,32.1
2018-03-03T04:24:41.569Z,31.2
2018-03-03T04:26:41.304Z,31.5
2018-03-03T04:27:41.132Z,31.7
2018-03-03T04:28:41.111Z,31.9
2018-03-03T04:29:41.551Z,31.1
2018-03-03T04:31:41.576Z,32.5
2018-03-03T04:32:41.143Z,31.1
2018-03-03T04:33:41.376Z,31.8
2018-03-03T04:34:41.480Z,32.6
2018-03-03T04:35:41.131Z,32.3
2018-03-03T04:36:41.590Z,31.7
2018-03-03T04:37:41.527Z,31.9
2018-03-03T04:38:41.317Z,31.8
2018-03-03T04:39:41.527Z,31.1
2018-03-03T04:40:41.123Z,32.1
2018-03-03T04:41:41.380Z,32.0
2018-03-03T04:42:41.394Z,32.0
2018-03-03T04:43:41.351Z,31.2
2018-03-03T04:44:41.617Z,31.6
2018-03-03T04:45:41.533Z,31.2
2018-03-03T04:46:41.337Z,31.8
2018-03-03T04:47:41.588Z,31.5
2018-03-03T04:48:41.587Z,31.5
2018-03-03T04:49:41.390Z,31.6
2018-03-03T04:50:41.594Z,31.8
2018-03-03T04:51:41.132Z,31.6
2018-03-03T04:52:41.532Z,31.0
2018-03-03T04:53:42.017Z,31.1
2018-03-03T04:54:41.137Z,31.5
2018-03-03T04:55:41.135Z,32.2
2018-03-03T04:56:41.142Z,32.5
2018-03-03T04:57:41.718Z,31.2
2018-03-03T04:58:41.588Z,32.1
2018-03-03T04:59:41.394Z,32.0
2018-03-03T05:00:41.656Z,32.1
2018-03-03T05:01:41.564Z,32.0
2018-03-03T05:02:41.203Z,31.7
2018-03-03T05:03:41.624Z,31.5
2018-03-03T05:04:41.173Z,31.6
2018-03-03T05:05:41.634Z,31.4
2018-03-03T05:07:41.378Z,31.5
2018-03-03T05:08:41.398Z,32.1
2018-03-03T05:09:41.398Z,32.6
2018-03-03T05:10:41.194Z,31.3
2018-03-03T05:11:41.612Z,32.8
2018-03-03T05:12:41.601Z,31.3
2018-03-03T05:13:41.619Z,30.3
2018-03-03T05:14:41.609Z,31.8
2018-03-03T05:15:41.433Z,32.0
2018-03-03T05:16:41.192Z,31.8
2018-03-03T05:17:41.234Z,31.5
2018-03-03T05:18:41.679Z,32.0
2018-03-03T05:19:41.240Z,31.5
2018-03-03T05:20:41.644Z,31.6
2018-03-03T05:21:41.602Z,32.4
2018-03-03T05:22:41.715Z,32.1
2018-03-03T05:23:41.171Z,32.2
2018-03-03T05:24:41.400Z,31.5
2018-03-03T05:25:41.614Z,31.3
2018-03-03T05:26:41.423Z,31.4
2018-03-03T05:27:41.658Z,31.3
2018-03-03T05:28:41.368Z,33.2
2018-03-03T05:29:41.704Z,33.2
2018-03-03T05:30:41.609Z,31.8
2018-03-03T05:31:41.436Z,31.2
2018-03-03T05:39:24.632Z,30.8
2018-03-03T05:40:24.744Z,31.1
2018-03-03T05:41:24.671Z,31.8
2018-03-03T05:42:24.640Z,31.8
2018-03-03T05:43:24.489Z,30.6
2018-03-03T05:45:24.688Z,31.8
2018-03-03T05:46:24.428Z,31.8
2018-03-03T05:47:24.468Z,32.0
2018-03-03T05:48:24.432Z,31.8
2018-03-03T05:49:24.462Z,31.5
2018-03-03T05:50:24.663Z,32.2
2018-03-03T05:51:24.662Z,30.4
2018-03-03T05:52:24.461Z,30.2
2018-03-03T05:53:24.274Z,30.5
2018-03-03T05:54:24.723Z,30.8
2018-03-03T05:55:24.467Z,31.3
2018-03-03T05:56:24.651Z,31.9
2018-03-03T05:57:24.759Z,31.2
2018-03-03T05:58:24.718Z,31.0
2018-03-03T05:59:24.231Z,31.5
2018-03-03T06:00:24.466Z,31.0
2018-03-03T06:01:24.653Z,30.5
2018-03-03T06:02:24.715Z,30.2
2018-03-03T06:03:24.267Z,30.5
2018-03-03T06:04:24.725Z,31.3
2018-03-03T06:05:24.250Z,31.0
2018-03-03T06:06:24.741Z,30.8
2018-03-03T06:08:24.497Z,30.9
2018-03-03T06:09:24.507Z,30.6
2018-03-03T06:10:24.744Z,30.9
2018-03-03T06:11:24.486Z,29.7
2018-03-03T06:12:25.090Z,30.6
2018-03-03T06:13:25.107Z,30.9
2018-03-03T06:14:24.998Z,30.3
2018-03-03T06:17:24.263Z,30.7
2018-03-03T06:18:24.305Z,30.7
2018-03-03T06:19:24.712Z,30.4
2018-03-03T06:20:24.550Z,29.8
2018-03-03T06:21:24.330Z,30.0
2018-03-03T06:22:24.766Z,31.1
2018-03-03T06:23:24.733Z,30.4
2018-03-03T06:24:24.504Z,30.9
2018-03-03T06:25:24.331Z,29.5
2018-03-03T06:26:25.350Z,31.0
2018-03-03T06:27:24.736Z,30.0
2018-03-03T06:28:24.746Z,30.1
2018-03-03T06:29:24.785Z,29.8
2018-03-03T06:30:24.786Z,29.4
2018-03-03T06:31:24.720Z,29.4
2018-03-03T06:32:24.958Z,28.6
2018-03-03T06:33:24.585Z,30.4
2018-03-03T06:34:24.507Z,30.0
2018-03-03T06:35:24.866Z,28.5
2018-03-03T06:36:24.776Z,30.5
2018-03-03T06:37:25.051Z,30.1
2018-03-03T06:38:32.966Z,30.3
2018-03-03T06:40:24.534Z,29.9
2018-03-03T06:41:24.699Z,29.8
2018-03-03T06:42:50.836Z,30.5
2018-03-03T06:43:25.047Z,31.4
2018-03-03T06:44:24.742Z,31.3
2018-03-03T06:45:24.360Z,30.7
2018-03-03T06:46:24.768Z,30.6
2018-03-03T06:47:43.846Z,31.3
2018-03-03T06:48:38.850Z,30.3
2018-03-03T06:49:26.275Z,30.5
2018-03-03T06:50:25.521Z,30.3
2018-03-03T06:51:26.302Z,30.5
2018-03-03T06:52:24.822Z,30.8
2018-03-03T06:53:24.727Z,29.4
2018-03-03T06:54:24.766Z,30.7
2018-03-03T06:55:24.527Z,30.5
2018-03-03T06:56:24.879Z,29.2
2018-03-03T06:57:34.090Z,29.9
2018-03-03T06:58:24.863Z,30.3
2018-03-03T06:59:24.801Z,30.3
2018-03-03T07:00:24.520Z,29.3
2018-03-03T07:01:24.770Z,29.5
2018-03-03T07:02:24.373Z,28.9
2018-03-03T07:04:24.796Z,29.7
2018-03-03T07:05:24.965Z,28.7
2018-03-03T07:08:25.654Z,29.2
2018-03-03T07:09:26.873Z,28.5
2018-03-03T07:10:25.062Z,29.0
2018-03-03T07:11:24.713Z,28.0
2018-03-03T07:12:24.779Z,27.7
2018-03-03T07:14:24.537Z,28.2
2018-03-03T07:15:33.786Z,28.5
2018-03-03T07:16:24.787Z,28.3
2018-03-03T07:17:24.642Z,28.9
2018-03-03T07:18:24.604Z,28.8
2018-03-03T07:19:24.937Z,28.4
2018-03-03T07:20:24.600Z,27.8
2018-03-03T07:21:24.430Z,28.3
2018-03-03T07:22:24.888Z,27.2
2018-03-03T07:23:24.795Z,27.6
2018-03-03T07:24:24.842Z,28.4
2018-03-03T07:25:24.816Z,28.4
2018-03-03T07:26:24.644Z,27.5
2018-03-03T07:28:24.866Z,28.4
2018-03-03T07:29:24.460Z,27.4
2018-03-03T07:30:24.813Z,27.6
2018-03-03T07:33:24.814Z,27.5
2018-03-03T07:34:24.491Z,27.9
2018-03-03T07:35:24.912Z,27.9
2018-03-03T07:36:24.853Z,27.6
2018-03-03T07:37:24.866Z,27.6
2018-03-03T07:38:25.092Z,27.9
2018-03-03T07:39:24.622Z,27.5
2018-03-03T07:40:24.725Z,28.1
2018-03-03T07:41:24.918Z,27.7
2018-03-03T07:42:24.794Z,28.4
2018-03-03T07:43:24.787Z,28.3
2018-03-03T07:45:24.941Z,26.5
2018-03-03T07:46:24.686Z,32.0
2018-03-03T07:47:24.469Z,67.2
2018-03-03T07:48:24.920Z,71.4
2018-03-03T07:49:24.880Z,74.6
2018-03-03T07:50:24.970Z,69.4
2018-03-03T07:51:25.088Z,70.8
2018-03-03T07:52:24.760Z,64.5
2018-03-03T07:53:25.120Z,61.3
2018-03-03T07:54:24.914Z,58.0
2018-03-03T07:55:24.621Z,56.7
2018-03-03T07:56:24.824Z,54.9
2018-03-03T07:57:24.985Z,53.3
2018-03-03T07:59:24.892Z,51.5
2018-03-03T08:00:24.624Z,48.9
2018-03-03T08:01:25.301Z,48.4
2018-03-03T08:02:24.619Z,46.7
2018-03-03T08:03:24.885Z,46.8
2018-03-03T08:05:24.821Z,43.1
2018-03-03T08:06:25.721Z,42.6
2018-03-03T08:07:25.006Z,42.7
2018-03-03T08:08:24.944Z,42.4
2018-03-03T08:09:24.938Z,42.2
2018-03-03T08:10:24.999Z,40.0
2018-03-03T08:11:24.958Z,40.3
2018-03-03T08:12:24.971Z,39.7
2018-03-03T08:13:24.938Z,39.0
2018-03-03T08:14:24.997Z,39.0
2018-03-03T08:15:24.510Z,38.4
2018-03-03T08:16:24.699Z,38.8
2018-03-03T08:17:25.006Z,38.3
2018-03-03T08:18:24.929Z,37.0
2018-03-03T08:19:24.754Z,37.2
2018-03-03T08:20:25.619Z,37.3
2018-03-03T08:21:24.727Z,35.5
2018-03-03T08:22:24.536Z,37.0
2018-03-03T08:23:24.860Z,35.9
2018-03-03T08:24:25.479Z,36.4
2018-03-03T08:25:24.529Z,35.9
2018-03-03T08:26:24.916Z,36.3
2018-03-03T08:27:24.902Z,33.9
2018-03-03T08:28:25.487Z,36.5
2018-03-03T08:29:24.958Z,34.1
2018-03-03T08:30:24.947Z,36.8
2018-03-03T08:31:24.504Z,35.9
2018-03-03T08:32:24.966Z,35.0
2018-03-03T08:34:24.964Z,34.3
2018-03-03T08:35:24.917Z,34.3
2018-03-03T08:36:25.052Z,34.7
2018-03-03T08:37:24.954Z,33.9
2018-03-03T08:38:24.508Z,33.5
2018-03-03T08:40:24.611Z,33.4
2018-03-03T08:43:24.721Z,32.5
2018-03-03T08:44:25.065Z,32.8
2018-03-03T08:46:25.061Z,31.7
2018-03-03T08:47:25.014Z,32.8
2018-03-03T08:48:24.972Z,32.1
2018-03-03T08:49:24.643Z,32.0
2018-03-03T08:50:24.540Z,32.5
2018-03-03T08:51:24.968Z,31.4
2018-03-03T08:52:25.257Z,31.9
2018-03-03T08:53:25.012Z,32.0
2018-03-03T08:54:25.158Z,32.5
2018-03-03T08:55:24.759Z,31.1
2018-03-03T08:56:25.685Z,31.4
2018-03-03T08:57:25.055Z,30.4
2018-03-03T08:58:25.038Z,30.6
2018-03-03T08:59:24.590Z,31.2
2018-03-03T09:00:25.354Z,30.7
2018-03-03T09:01:25.138Z,30.3
2018-03-03T09:02:25.206Z,31.4
2018-03-03T09:03:26.342Z,30.6
2018-03-03T09:04:25.894Z,30.2
2018-03-03T09:05:25.061Z,30.0
2018-03-03T09:06:25.209Z,29.8
2018-03-03T09:07:25.442Z,29.9
2018-03-03T09:08:24.763Z,29.6
2018-03-03T09:09:24.667Z,29.2
2018-03-03T09:10:24.863Z,28.4
2018-03-03T09:11:25.042Z,28.8
2018-03-03T09:12:24.672Z,29.2
2018-03-03T09:13:24.647Z,28.0
2018-03-03T09:14:25.172Z,28.8
2018-03-03T09:15:29.287Z,28.8
2018-03-03T09:16:25.186Z,27.7
2018-03-03T09:17:25.108Z,27.8
2018-03-03T09:18:25.138Z,27.9
2018-03-03T09:19:24.682Z,28.0
2018-03-03T09:20:25.244Z,28.1
2018-03-03T09:21:25.149Z,26.9
2018-03-03T09:22:25.117Z,27.8
2018-03-03T09:23:24.871Z,27.2
2018-03-03T09:24:24.665Z,27.3
2018-03-03T09:25:24.772Z,27.0
2018-03-03T09:26:24.772Z,25.6
2018-03-03T09:27:24.687Z,26.9
2018-03-03T09:28:25.168Z,27.0
2018-03-03T09:29:25.471Z,26.5
2018-03-03T09:30:25.101Z,25.8
2018-03-03T09:31:25.071Z,25.2
2018-03-03T09:32:25.239Z,25.2
2018-03-03T09:36:25.137Z,26.1
2018-03-03T09:37:25.108Z,25.7
2018-03-03T09:39:25.169Z,24.7
2018-03-03T09:41:24.766Z,24.9
2018-03-03T09:42:25.182Z,26.3
2018-03-03T09:43:25.064Z,26.0
2018-03-03T09:44:25.253Z,25.8
2018-03-03T09:45:24.868Z,25.3
2018-03-03T09:47:25.184Z,25.7
2018-03-03T09:48:25.808Z,24.1
2018-03-03T09:49:24.999Z,25.5
2018-03-03T09:50:25.863Z,24.7
2018-03-03T09:51:25.141Z,24.7
2018-03-03T09:52:25.130Z,24.4
2018-03-03T09:53:25.173Z,24.6
2018-03-03T09:54:25.315Z,24.2
2018-03-03T09:56:24.975Z,24.8
2018-03-03T09:58:25.276Z,23.4
2018-03-03T09:59:24.927Z,23.8
2018-03-03T10:00:25.216Z,24.1
2018-03-03T10:01:25.157Z,23.3
2018-03-03T10:02:24.994Z,23.6
2018-03-03T10:03:24.880Z,23.6
2018-03-03T10:04:25.527Z,23.3
2018-03-03T10:05:25.124Z,23.3
2018-03-03T10:06:24.789Z,23.8
2018-03-03T10:07:25.112Z,23.0
2018-03-03T10:08:24.858Z,23.2
2018-03-03T10:09:24.824Z,22.4
2018-03-03T10:10:25.211Z,22.6
2018-03-03T10:11:25.197Z,22.8
2018-03-03T10:12:25.186Z,22.5
2018-03-03T10:13:24.991Z,22.4
2018-03-03T10:14:25.232Z,22.3
2018-03-03T10:15:24.693Z,22.0
2018-03-03T10:16:25.230Z,23.4
2018-03-03T10:17:25.257Z,22.7
2018-03-03T10:18:24.808Z,22.0
2018-03-03T10:21:25.098Z,22.6
2018-03-03T10:22:25.283Z,22.6
2018-03-03T10:23:25.109Z,23.0
2018-03-03T10:24:25.191Z,23.3
2018-03-03T10:25:25.221Z,24.7
2018-03-03T10:26:25.265Z,25.2
2018-03-03T10:27:25.154Z,25.4
2018-03-03T10:28:24.689Z,25.2
2018-03-03T10:29:24.918Z,26.1
2018-03-03T10:30:25.776Z,24.7
2018-03-03T10:31:24.792Z,26.1
2018-03-03T10:32:25.179Z,26.1
2018-03-03T10:33:25.121Z,25.1
2018-03-03T10:35:25.159Z,24.7
2018-03-03T10:36:25.205Z,24.5
2018-03-03T10:37:24.954Z,25.0
2018-03-03T10:38:25.028Z,24.6
2018-03-03T10:39:24.981Z,23.9
2018-03-03T10:40:26.141Z,23.6
2018-03-03T10:41:24.909Z,23.7
2018-03-03T10:42:24.993Z,23.5
2018-03-03T10:43:25.275Z,23.7
2018-03-03T10:45:25.431Z,24.4
2018-03-03T10:46:24.857Z,23.8
2018-03-03T10:47:25.264Z,23.5
2018-03-03T10:48:25.167Z,23.3
2018-03-03T10:49:24.857Z,23.4
2018-03-03T10:50:25.024Z,23.4
2018-03-03T10:51:28.591Z,23.2
2018-03-03T10:52:25.220Z,23.6
2018-03-03T10:53:24.776Z,22.8
2018-03-03T10:54:24.995Z,23.2
2018-03-03T10:55:25.878Z,23.8
2018-03-03T10:56:25.174Z,22.9
2018-03-03T10:57:25.528Z,24.6
2018-03-03T10:58:25.494Z,23.3
2018-03-03T10:59:25.215Z,24.0
2018-03-03T11:00:25.419Z,23.8
2018-03-03T11:01:25.351Z,23.4
2018-03-03T11:02:25.285Z,24.8
2018-03-03T11:03:25.394Z,24.3
2018-03-03T11:04:25.398Z,24.6
2018-03-03T11:05:25.417Z,23.9
2018-03-03T11:06:25.579Z,24.9
2018-03-03T11:07:25.423Z,22.9
2018-03-03T11:08:25.093Z,24.3
2018-03-03T11:09:26.039Z,23.4
2018-03-03T11:10:25.098Z,24.3
2018-03-03T11:11:25.931Z,24.0
2018-03-03T11:12:25.433Z,23.6
2018-03-03T11:13:25.464Z,23.6
2018-03-03T11:14:25.453Z,24.0
2018-03-03T11:15:25.000Z,22.9
2018-03-03T11:17:25.195Z,23.5
2018-03-03T11:19:25.454Z,23.2
2018-03-03T11:20:25.092Z,22.9
2018-03-03T11:21:25.053Z,22.3
2018-03-03T11:22:25.047Z,23.3
2018-03-03T11:23:25.158Z,31.4
2018-03-03T11:25:38.224Z,27.9
2018-03-03T11:27:38.448Z,27.0
2018-03-03T11:28:38.176Z,28.2
2018-03-03T11:29:38.629Z,28.4
2018-03-03T11:30:38.400Z,29.1
2018-03-03T11:31:38.672Z,28.5
2018-03-03T11:33:38.515Z,27.2
2018-03-03T11:34:39.277Z,26.5
2018-03-03T11:35:43.037Z,27.5
2018-03-03T11:36:40.488Z,26.9
2018-03-03T11:37:38.251Z,26.5
2018-03-03T11:38:39.739Z,26.5
2018-03-03T11:39:38.790Z,27.6
2018-03-03T11:40:38.878Z,28.0
2018-03-03T11:41:38.714Z,26.1
2018-03-03T11:42:38.911Z,26.8
2018-03-03T11:43:39.089Z,25.9
2018-03-03T11:44:38.436Z,24.9
2018-03-03T11:45:38.242Z,33.0
2018-03-03T11:46:38.633Z,40.1
2018-03-03T11:47:38.653Z,43.5
2018-03-03T11:48:38.314Z,45.6
2018-03-03T11:49:39.322Z,51.4
2018-03-03T11:50:39.900Z,54.8
2018-03-03T11:51:38.811Z,57.2
2018-03-03T11:52:39.499Z,60.2
2018-03-03T11:53:38.270Z,59.5
2018-03-03T11:55:38.240Z,57.4
2018-03-03T11:56:39.333Z,58.3
2018-03-03T11:57:38.274Z,59.4
2018-03-03T11:58:39.327Z,56.9
2018-03-03T11:59:38.763Z,59.0
2018-03-03T12:00:41.035Z,56.7
2018-03-03T12:01:38.328Z,56.9
2018-03-03T12:02:39.032Z,57.1
2018-03-03T12:03:38.692Z,55.5
2018-03-03T12:05:38.816Z,58.7
2018-03-03T12:06:38.773Z,52.9
2018-03-03T12:08:38.848Z,54.7
2018-03-03T12:09:38.791Z,54.5
2018-03-03T12:10:38.777Z,52.8
2018-03-03T12:11:38.388Z,54.7
2018-03-03T12:12:38.814Z,54.4
2018-03-03T12:13:38.836Z,53.9
2018-03-03T12:14:38.779Z,53.8
2018-03-03T12:15:38.546Z,53.1
2018-03-03T12:16:38.577Z,54.3
2018-03-03T12:17:38.579Z,53.7
2018-03-03T12:18:39.377Z,53.8
2018-03-03T12:19:38.879Z,52.5
2018-03-03T12:20:38.618Z,51.6
2018-03-03T12:21:38.915Z,51.2
2018-03-03T12:22:39.540Z,51.4
2018-03-03T12:23:38.752Z,50.4
2018-03-03T12:24:38.619Z,51.8
2018-03-03T12:25:38.722Z,50.8
2018-03-03T12:26:38.869Z,51.9
2018-03-03T12:27:38.792Z,49.8
2018-03-03T12:29:38.387Z,49.7
2018-03-03T12:30:38.439Z,51.5
2018-03-03T12:31:39.026Z,51.1
2018-03-03T12:34:39.528Z,52.9
2018-03-03T12:35:39.882Z,49.9
2018-03-03T12:36:38.818Z,50.8
2018-03-03T12:37:39.013Z,52.1
2018-03-03T12:38:39.558Z,50.9
2018-03-03T12:39:38.847Z,49.3
2018-03-03T12:40:38.783Z,51.2
2018-03-03T12:41:38.360Z,48.3
2018-03-03T12:42:38.511Z,47.4
2018-03-03T12:44:39.416Z,47.2
2018-03-03T12:45:38.818Z,45.9
2018-03-03T12:46:38.770Z,45.1
2018-03-03T12:47:38.546Z,47.0
2018-03-03T12:48:38.436Z,47.3
2018-03-03T12:49:38.922Z,46.4
2018-03-03T12:50:40.256Z,48.9
2018-03-03T12:51:38.592Z,49.2
2018-03-03T12:53:38.562Z,49.7
2018-03-03T12:55:38.728Z,50.2
2018-03-03T12:56:39.922Z,50.0
2018-03-03T12:57:38.781Z,48.0
2018-03-03T12:58:39.065Z,47.8
2018-03-03T12:59:39.922Z,46.9
2018-03-03T13:00:38.635Z,45.7
2018-03-03T13:01:38.394Z,45.4
2018-03-03T13:02:40.464Z,47.2
2018-03-03T13:03:39.822Z,45.8
2018-03-03T13:04:38.926Z,46.4
2018-03-03T13:05:39.627Z,46.4
2018-03-03T13:06:38.862Z,46.5
2018-03-03T13:07:38.471Z,44.2
2018-03-03T13:08:38.696Z,44.9
2018-03-03T13:10:40.305Z,45.4
2018-03-03T13:12:38.904Z,44.1
2018-03-03T13:13:38.903Z,46.0
2018-03-03T13:14:38.843Z,45.9
2018-03-03T13:15:38.425Z,45.0
2018-03-03T13:16:39.009Z,43.5
2018-03-03T13:20:38.460Z,45.2
2018-03-03T13:21:38.885Z,45.1
2018-03-03T13:22:38.987Z,47.5
2018-03-03T13:24:38.984Z,46.4
2018-03-03T13:26:38.766Z,46.8
2018-03-03T13:27:38.531Z,47.2
2018-03-03T13:28:39.007Z,40.1
2018-03-03T13:29:38.886Z,37.1
2018-03-03T13:30:39.215Z,36.3
2018-03-03T13:31:38.905Z,36.1
2018-03-03T13:32:39.018Z,37.3
2018-03-03T13:33:38.439Z,35.6
2018-03-03T13:34:38.983Z,33.6
2018-03-03T13:35:39.045Z,34.1
2018-03-03T13:36:39.095Z,30.6
2018-03-03T13:37:38.501Z,31.5
2018-03-03T13:38:38.782Z,33.3
2018-03-03T13:39:38.343Z,30.6
2018-03-03T13:40:39.075Z,31.2
2018-03-03T13:41:38.760Z,29.7
2018-03-03T13:42:39.310Z,29.1
2018-03-03T13:43:38.682Z,28.3
2018-03-03T13:44:39.613Z,27.2
2018-03-03T13:45:38.757Z,29.8
2018-03-03T13:47:38.943Z,26.4
2018-03-03T13:48:40.054Z,25.2
2018-03-03T13:50:38.889Z,23.9
2018-03-03T13:51:38.520Z,24.6
2018-03-03T13:52:38.432Z,25.1
2018-03-03T13:53:38.921Z,24.9
2018-03-03T13:54:38.629Z,23.5
2018-03-03T13:55:38.839Z,23.7
2018-03-03T13:56:38.810Z,25.9
2018-03-03T13:58:38.527Z,23.0
2018-03-03T13:59:38.691Z,23.9
2018-03-03T14:00:38.509Z,22.4
2018-03-03T14:01:38.471Z,23.8
2018-03-03T14:02:38.755Z,23.0
2018-03-03T14:03:39.797Z,21.8
2018-03-03T14:04:38.590Z,22.1
2018-03-03T14:06:38.823Z,21.3
2018-03-03T14:08:38.722Z,21.1
2018-03-03T14:09:38.732Z,21.8
2018-03-03T14:10:39.511Z,22.6
2018-03-03T14:11:38.699Z,22.0
2018-03-03T14:12:38.880Z,24.2
2018-03-03T14:13:38.497Z,23.5
2018-03-03T14:15:38.704Z,23.0
2018-03-03T14:16:38.996Z,21.7
2018-03-03T14:17:39.066Z,21.8
2018-03-03T14:18:38.985Z,22.5
2018-03-03T14:19:38.829Z,21.2
2018-03-03T14:20:38.924Z,19.6
2018-03-03T14:21:38.646Z,20.6
2018-03-03T14:22:38.537Z,21.1
2018-03-03T14:23:38.559Z,20.6
2018-03-03T14:24:38.570Z,19.9
2018-03-03T14:27:38.583Z,20.1
2018-03-03T14:28:39.138Z,19.9
2018-03-03T14:29:38.895Z,20.5
2018-03-03T14:31:39.004Z,19.5
2018-03-03T14:32:38.905Z,19.1
2018-03-03T14:33:38.896Z,19.0
2018-03-03T14:35:38.602Z,19.5
2018-03-03T14:36:39.003Z,19.5
2018-03-03T14:37:39.053Z,18.7
2018-03-03T14:38:39.057Z,18.8
2018-03-03T14:39:39.067Z,17.9
2018-03-03T14:40:38.988Z,18.9
2018-03-03T14:41:39.129Z,19.3
2018-03-03T14:42:39.013Z,18.2
2018-03-03T14:43:38.826Z,19.2
2018-03-03T14:44:38.790Z,18.4
2018-03-03T14:45:39.732Z,18.3
2018-03-03T14:46:39.106Z,19.2
2018-03-03T14:47:38.802Z,18.0
2018-03-03T14:48:39.086Z,18.2
2018-03-03T14:49:38.693Z,18.4
2018-03-03T14:50:38.604Z,18.0
2018-03-03T14:51:38.989Z,17.1
2018-03-03T14:52:38.646Z,18.0
2018-03-03T14:53:38.840Z,18.0
2018-03-03T14:54:38.773Z,18.1
2018-03-03T14:55:39.055Z,18.5
2018-03-03T14:56:39.063Z,18.4
2018-03-03T14:58:38.959Z,17.9
2018-03-03T14:59:39.035Z,17.7
2018-03-03T15:00:38.832Z,18.1